Time;durP1;ratioP1;P1;durP2;ratioP2;P2;SDS_P1;SDS_P2;PMS_P1;PMS_P2;Temp;Humidity;BMP_temperature;BMP_pressure;BME280_temperature;BME280_humidity;BME280_pressure;Samples;Min_cycle;Max_cycle;Signal;HPM_P1;HPM_P2
2022/05/26 00:01:35;;;;;;;4.55;1.13;;;;;;;;;;5030100;28;20029;-67
2022/05/26 00:04:00;;;;;;;6.07;0.63;;;;;;;;;;5015238;28;20100;-67
2022/05/26 00:06:25;;;;;;;4.70;1.10;;;;;;;;;;5031708;28;20272;-67
2022/05/26 00:08:51;;;;;;;2.63;0.82;;;;;;;;;;5021404;28;20021;-67
2022/05/26 00:11:18;;;;;;;4.40;1.00;;;;;;;;;;5024902;28;20057;-67
2022/05/26 00:13:43;;;;;;;2.25;0.70;;;;;;;;;;5016741;28;20484;-67
2022/05/26 00:16:08;;;;;;;9.30;2.00;;;;;;;;;;5023664;28;20119;-67
2022/05/26 00:18:34;;;;;;;6.97;3.03;;;;;;;;;;5023383;28;20044;-67
2022/05/26 00:20:59;;;;;;;9.13;5.18;;;;;;;;;;5018519;28;20017;-67
2022/05/26 00:23:25;;;;;;;14.10;7.50;;;;;;;;;;5023523;28;20046;-67
2022/05/26 00:25:50;;;;;;;15.82;8.02;;;;;;;;;;5029272;28;20453;-67
2022/05/26 00:28:15;;;;;;;7.63;4.13;;;;;;;;;;5027678;28;20496;-67
2022/05/26 00:30:41;;;;;;;8.37;3.63;;;;;;;;;;5022180;28;20312;-67
2022/05/26 00:33:07;;;;;;;6.93;1.65;;;;;;;;;;5018755;28;20621;-67
2022/05/26 00:35:34;;;;;;;3.05;1.00;;;;;;;;;;5024310;28;20017;-67
2022/05/26 00:38:01;;;;;;;7.15;0.90;;;;;;;;;;5030504;28;20014;-67
2022/05/26 00:40:26;;;;;;;4.18;0.80;;;;;;;;;;5027059;28;20021;-67
2022/05/26 00:42:51;;;;;;;2.55;0.82;;;;;;;;;;5026855;28;20447;-67
2022/05/26 00:45:16;;;;;;;5.72;0.80;;;;;;;;;;5024401;28;20523;-67
2022/05/26 00:47:44;;;;;;;4.40;0.77;;;;;;;;;;5024142;28;20436;-67
2022/05/26 00:50:21;;;;;;;2.70;0.70;;;;;;;;;;5019603;28;20653;-67
2022/05/26 00:52:50;;;;;;;9.25;0.95;;;;;;;;;;5022800;28;20024;-67
2022/05/26 00:55:36;;;;;;;1.08;0.50;;;;;;;;;;5024934;28;20026;-67
2022/05/26 00:58:07;;;;;;;6.22;0.88;;;;;;;;;;5024572;28;20022;-67
2022/05/26 01:00:34;;;;;;;4.18;0.50;;;;;;;;;;5029502;28;20052;-67
2022/05/26 01:03:05;;;;;;;5.43;1.17;;;;;;;;;;5024680;28;20023;-67
2022/05/26 01:05:37;;;;;;;8.48;0.60;;;;;;;;;;5020061;28;20037;-67
2022/05/26 01:08:07;;;;;;;4.43;0.60;;;;;;;;;;5008655;28;20057;-67
2022/05/26 01:10:32;;;;;;;5.22;1.00;;;;;;;;;;5020097;28;20381;-67
2022/05/26 01:12:57;;;;;;;4.68;1.35;;;;;;;;;;5020061;28;20017;-67
2022/05/26 01:15:23;;;;;;;2.77;0.70;;;;;;;;;;5000854;28;20374;-67
2022/05/26 01:17:48;;;;;;;5.30;0.73;;;;;;;;;;5009603;28;20280;-67
2022/05/26 01:20:23;;;;;;;3.33;0.73;;;;;;;;;;5027740;28;20079;-67
2022/05/26 01:22:48;;;;;;;2.47;1.15;;;;;;;;;;5023914;28;20283;-67
2022/05/26 01:25:32;;;;;;;2.17;0.80;;;;;;;;;;5019788;28;20022;-67
2022/05/26 01:28:17;;;;;;;7.18;1.25;;;;;;;;;;5023780;28;20481;-68
2022/05/26 01:30:45;;;;;;;3.58;0.90;;;;;;;;;;4978386;28;20045;-67
2022/05/26 01:33:19;;;;;;;7.50;1.17;;;;;;;;;;5021018;28;20044;-67
2022/05/26 01:36:01;;;;;;;4.80;0.90;;;;;;;;;;5015300;28;20057;-67
2022/05/26 01:38:29;;;;;;;3.05;0.70;;;;;;;;;;5029501;28;20099;-67
2022/05/26 01:40:57;;;;;;;6.57;1.05;;;;;;;;;;5029238;28;20021;-67
2022/05/26 01:43:34;;;;;;;4.57;1.02;;;;;;;;;;5024219;28;20521;-67
2022/05/26 01:46:06;;;;;;;2.13;0.80;;;;;;;;;;5017169;28;20018;-67
2022/05/26 01:48:53;;;;;;;7.88;0.95;;;;;;;;;;5022872;28;20013;-67
2022/05/26 01:51:18;;;;;;;9.85;1.27;;;;;;;;;;5021327;28;20485;-67
2022/05/26 01:53:46;;;;;;;5.27;0.67;;;;;;;;;;5022547;28;20028;-67
2022/05/26 01:56:34;;;;;;;4.90;0.70;;;;;;;;;;5022759;28;20367;-67
2022/05/26 01:59:06;;;;;;;4.40;1.20;;;;;;;;;;5022743;28;20390;-67
2022/05/26 02:01:33;;;;;;;2.30;0.85;;;;;;;;;;5019010;28;20022;-67
2022/05/26 02:04:02;;;;;;;1.67;0.88;;;;;;;;;;5022311;28;20028;-67
2022/05/26 02:06:33;;;;;;;3.03;0.82;;;;;;;;;;5026094;28;20030;-67
2022/05/26 02:08:58;;;;;;;7.25;0.73;;;;;;;;;;5022870;28;20025;-67
2022/05/26 02:11:23;;;;;;;5.72;1.23;;;;;;;;;;5025889;28;20153;-67
2022/05/26 02:13:55;;;;;;;4.53;0.90;;;;;;;;;;5017673;28;20044;-67
2022/05/26 02:16:20;;;;;;;5.60;0.90;;;;;;;;;;5003886;28;20092;-67
2022/05/26 02:18:48;;;;;;;4.03;0.60;;;;;;;;;;5023207;28;20430;-67
2022/05/26 02:21:19;;;;;;;2.53;1.02;;;;;;;;;;5028800;28;20044;-67
2022/05/26 02:23:50;;;;;;;4.05;0.80;;;;;;;;;;5021943;28;20075;-67
2022/05/26 02:26:15;;;;;;;4.07;1.08;;;;;;;;;;5018823;28;20050;-67
2022/05/26 02:31:27;;;;;;;3.35;0.65;;;;;;;;;;5024304;28;20519;-67
2022/05/26 02:33:55;;;;;;;2.40;0.65;;;;;;;;;;5022746;28;20017;-67
2022/05/26 02:36:21;;;;;;;2.40;0.80;;;;;;;;;;5022320;28;20013;-67
2022/05/26 02:38:46;;;;;;;2.22;0.90;;;;;;;;;;5022191;28;20075;-67
2022/05/26 02:41:12;;;;;;;3.60;0.90;;;;;;;;;;5025851;28;20069;-67
2022/05/26 02:43:37;;;;;;;3.85;0.90;;;;;;;;;;5014696;28;20440;-67
2022/05/26 02:46:12;;;;;;;4.40;1.08;;;;;;;;;;5028527;28;20032;-66
2022/05/26 02:48:56;;;;;;;4.57;1.05;;;;;;;;;;5020937;28;20030;-66
2022/05/26 02:51:32;;;;;;;2.45;0.80;;;;;;;;;;5019199;28;20025;-67
2022/05/26 02:54:04;;;;;;;4.72;1.30;;;;;;;;;;5021775;28;20021;-67
2022/05/26 02:56:32;;;;;;;2.53;1.13;;;;;;;;;;5017942;28;20017;-67
2022/05/26 02:58:57;;;;;;;7.07;1.38;;;;;;;;;;5023445;28;20068;-67
2022/05/26 03:01:40;;;;;;;1.87;0.90;;;;;;;;;;5025771;28;20530;-67
2022/05/26 03:04:08;;;;;;;4.28;1.20;;;;;;;;;;5024205;28;20366;-67
2022/05/26 03:06:38;;;;;;;4.85;1.20;;;;;;;;;;5023067;28;20029;-67
2022/05/26 03:09:05;;;;;;;2.55;1.38;;;;;;;;;;5020420;28;20021;-67
2022/05/26 03:11:41;;;;;;;4.05;1.27;;;;;;;;;;5020736;28;20021;-67
2022/05/26 03:14:06;;;;;;;6.57;2.42;;;;;;;;;;5024933;28;20052;-67
2022/05/26 03:16:31;;;;;;;7.63;2.13;;;;;;;;;;5023198;28;20107;-67
2022/05/26 03:18:58;;;;;;;5.57;2.07;;;;;;;;;;5007005;28;20272;-67
2022/05/26 03:21:23;;;;;;;6.45;2.17;;;;;;;;;;5027304;28;20279;-67
2022/05/26 03:23:48;;;;;;;10.50;2.03;;;;;;;;;;5019853;28;20060;-67
2022/05/26 03:26:13;;;;;;;7.87;2.50;;;;;;;;;;5017026;28;20280;-66
2022/05/26 03:28:39;;;;;;;11.25;2.65;;;;;;;;;;5023513;28;20273;-67
2022/05/26 03:31:05;;;;;;;7.68;2.83;;;;;;;;;;5025265;28;20061;-66
2022/05/26 03:40:45;;;;;;;7.03;1.85;;;;;;;;;;5022734;28;20030;-67
2022/05/26 03:41:43;;;;;;;2.63;1.25;;;;;;;;;;5030122;28;20024;-67
2022/05/26 03:44:09;;;;;;;4.83;1.70;;;;;;;;;;5027120;28;20014;-67
2022/05/26 03:46:34;;;;;;;8.10;1.90;;;;;;;;;;5024341;28;20289;-66
2022/05/26 03:48:59;;;;;;;11.75;1.80;;;;;;;;;;5015563;28;20018;-67
2022/05/26 03:51:24;;;;;;;5.93;2.27;;;;;;;;;;5013210;28;20058;-67
2022/05/26 03:53:50;;;;;;;5.15;1.65;;;;;;;;;;5023037;28;20269;-67
2022/05/26 03:56:15;;;;;;;7.33;1.60;;;;;;;;;;5025782;28;20022;-67
2022/05/26 03:58:40;;;;;;;4.33;2.00;;;;;;;;;;5025255;28;20359;-67
2022/05/26 04:01:06;;;;;;;3.97;1.60;;;;;;;;;;5027592;28;20622;-67
2022/05/26 04:03:31;;;;;;;6.40;1.60;;;;;;;;;;5023657;28;20288;-67
2022/05/26 04:05:57;;;;;;;11.27;2.58;;;;;;;;;;5025632;28;20018;-68
2022/05/26 04:08:23;;;;;;;6.90;1.73;;;;;;;;;;5031765;28;20052;-67
2022/05/26 04:10:48;;;;;;;6.97;1.98;;;;;;;;;;5027244;28;20316;-67
2022/05/26 04:13:13;;;;;;;11.93;2.50;;;;;;;;;;5025303;28;20022;-67
2022/05/26 04:15:38;;;;;;;8.10;2.53;;;;;;;;;;5031176;28;20303;-67
2022/05/26 04:18:03;;;;;;;11.93;2.63;;;;;;;;;;5028494;28;20092;-67
2022/05/26 04:20:29;;;;;;;8.20;2.10;;;;;;;;;;5025127;28;20109;-67
2022/05/26 04:22:54;;;;;;;7.90;1.90;;;;;;;;;;5023412;28;20425;-67
2022/05/26 04:25:20;;;;;;;9.10;2.93;;;;;;;;;;5030796;28;20264;-67
2022/05/26 04:27:45;;;;;;;11.55;2.00;;;;;;;;;;5044630;23;20757;-70
2022/05/26 04:30:11;;;;;;;6.55;1.83;;;;;;;;;;5011499;28;20341;-70
2022/05/26 04:32:36;;;;;;;6.78;2.15;;;;;;;;;;5007401;28;20105;-70
2022/05/26 04:35:02;;;;;;;6.00;2.50;;;;;;;;;;4994657;28;20065;-71
2022/05/26 04:37:28;;;;;;;10.05;3.08;;;;;;;;;;5001414;28;20022;-69
2022/05/26 04:39:55;;;;;;;11.02;2.58;;;;;;;;;;5008493;28;20081;-70
2022/05/26 04:42:21;;;;;;;9.90;2.45;;;;;;;;;;5001681;28;20029;-69
2022/05/26 04:44:46;;;;;;;18.48;2.67;;;;;;;;;;5000703;28;20030;-70
2022/05/26 04:47:12;;;;;;;11.48;2.60;;;;;;;;;;4994474;28;20712;-70
2022/05/26 04:49:38;;;;;;;8.20;2.58;;;;;;;;;;4994714;28;20037;-70
2022/05/26 04:52:07;;;;;;;10.80;2.30;;;;;;;;;;4992839;28;20018;-69
2022/05/26 04:54:32;;;;;;;8.75;2.72;;;;;;;;;;4995034;28;20029;-68
2022/05/26 04:56:58;;;;;;;10.68;2.72;;;;;;;;;;4991001;28;20022;-69
2022/05/26 04:59:24;;;;;;;12.18;3.30;;;;;;;;;;5002176;28;20049;-69
2022/05/26 05:01:49;;;;;;;9.68;3.92;;;;;;;;;;4996931;28;20034;-70
2022/05/26 05:04:14;;;;;;;17.00;4.47;;;;;;;;;;4991676;28;20249;-70
2022/05/26 05:06:39;;;;;;;12.57;5.40;;;;;;;;;;4997306;28;20292;-70
2022/05/26 05:09:04;;;;;;;12.23;3.78;;;;;;;;;;4986577;28;20322;-70
2022/05/26 05:11:30;;;;;;;14.67;4.10;;;;;;;;;;4998840;28;20044;-70
2022/05/26 05:13:55;;;;;;;10.23;4.28;;;;;;;;;;4996000;28;20351;-70
2022/05/26 05:16:20;;;;;;;19.90;5.65;;;;;;;;;;4989996;28;20014;-70
2022/05/26 05:18:46;;;;;;;12.73;3.53;;;;;;;;;;4989759;28;20025;-70
2022/05/26 05:21:13;;;;;;;11.32;3.47;;;;;;;;;;4994058;28;20029;-70
2022/05/26 05:23:41;;;;;;;21.40;4.32;;;;;;;;;;4994238;28;20164;-70
2022/05/26 05:26:07;;;;;;;12.65;3.92;;;;;;;;;;4988828;28;20484;-70
2022/05/26 05:28:34;;;;;;;13.80;3.55;;;;;;;;;;5001775;28;20107;-70
2022/05/26 05:31:03;;;;;;;12.38;3.45;;;;;;;;;;4986254;28;20028;-70
2022/05/26 05:33:33;;;;;;;18.23;5.13;;;;;;;;;;4998328;28;20549;-71
2022/05/26 05:36:14;;;;;;;13.85;4.68;;;;;;;;;;4988899;28;20026;-71
2022/05/26 05:38:40;;;;;;;13.88;4.65;;;;;;;;;;4985214;28;20030;-71
2022/05/26 05:41:06;;;;;;;20.08;4.60;;;;;;;;;;4994848;28;20486;-70
2022/05/26 05:43:32;;;;;;;15.88;3.70;;;;;;;;;;4997345;28;20029;-70
2022/05/26 05:45:57;;;;;;;18.23;4.63;;;;;;;;;;4990542;28;20036;-70
2022/05/26 05:48:22;;;;;;;13.68;4.43;;;;;;;;;;4998092;28;20021;-71
2022/05/26 05:50:47;;;;;;;12.20;3.45;;;;;;;;;;4991148;28;20479;-71
2022/05/26 05:53:15;;;;;;;14.82;4.60;;;;;;;;;;5001906;28;20080;-71
2022/05/26 05:55:40;;;;;;;21.08;4.35;;;;;;;;;;4992639;28;20030;-71
2022/05/26 05:58:08;;;;;;;18.60;5.55;;;;;;;;;;4994285;28;20059;-71
2022/05/26 06:00:33;;;;;;;26.77;5.32;;;;;;;;;;4995949;28;20154;-71
2022/05/26 06:02:58;;;;;;;15.68;5.07;;;;;;;;;;4995849;28;20018;-71
2022/05/26 06:05:25;;;;;;;26.00;5.80;;;;;;;;;;4996108;28;20100;-70
2022/05/26 06:07:50;;;;;;;18.48;5.18;;;;;;;;;;4988000;28;20368;-71
2022/05/26 06:10:15;;;;;;;19.35;5.38;;;;;;;;;;5000095;28;20052;-70
2022/05/26 06:12:40;;;;;;;18.45;5.85;;;;;;;;;;4996947;28;20057;-70
2022/05/26 06:15:06;;;;;;;19.80;5.70;;;;;;;;;;4996244;28;20394;-71
2022/05/26 06:17:31;;;;;;;15.40;4.70;;;;;;;;;;4989875;28;20277;-71
2022/05/26 06:19:56;;;;;;;18.47;6.83;;;;;;;;;;4990937;28;20033;-71
2022/05/26 06:22:22;;;;;;;23.23;5.65;;;;;;;;;;4996837;28;20268;-71
2022/05/26 06:24:47;;;;;;;17.20;5.97;;;;;;;;;;4999521;28;20092;-71
2022/05/26 06:29:58;;;;;;;26.13;6.00;;;;;;;;;;4989818;28;20069;-70
2022/05/26 06:37:53;;;;;;;19.58;6.50;;;;;;;;;;5000987;28;20485;-71
2022/05/26 06:40:18;;;;;;;18.23;5.90;;;;;;;;;;4992997;28;20021;-71
2022/05/26 06:42:44;;;;;;;16.33;5.22;;;;;;;;;;4998002;28;20282;-71
2022/05/26 06:45:11;;;;;;;17.83;5.10;;;;;;;;;;4996070;28;20462;-71
2022/05/26 06:47:36;;;;;;;17.55;5.93;;;;;;;;;;4989722;28;20030;-71
2022/05/26 06:50:01;;;;;;;18.70;4.73;;;;;;;;;;4980911;28;20398;-71
2022/05/26 06:52:28;;;;;;;19.23;5.38;;;;;;;;;;4977090;28;20343;-71
2022/05/26 06:54:54;;;;;;;14.63;5.10;;;;;;;;;;4989039;28;20038;-71
2022/05/26 06:57:19;;;;;;;25.23;6.22;;;;;;;;;;4992972;28;20025;-71
2022/05/26 06:59:44;;;;;;;17.30;5.82;;;;;;;;;;4987252;28;20254;-71
2022/05/26 07:02:11;;;;;;;19.85;5.65;;;;;;;;;;4998877;28;20057;-71
2022/05/26 07:04:36;;;;;;;21.15;6.32;;;;;;;;;;4993152;28;20026;-71
2022/05/26 07:07:02;;;;;;;18.85;5.88;;;;;;;;;;4984511;28;20077;-71
2022/05/26 07:09:27;;;;;;;24.63;4.65;;;;;;;;;;4987178;28;20097;-71
2022/05/26 07:11:52;;;;;;;15.68;5.97;;;;;;;;;;4991260;28;20469;-71
2022/05/26 07:14:19;;;;;;;13.13;4.80;;;;;;;;;;4982196;28;20506;-70
2022/05/26 07:16:45;;;;;;;20.85;5.03;;;;;;;;;;4985473;28;20627;-71
2022/05/26 07:19:10;;;;;;;22.30;5.35;;;;;;;;;;4987467;28;20026;-70
2022/05/26 07:21:36;;;;;;;12.23;5.18;;;;;;;;;;4986916;28;20117;-71
2022/05/26 07:24:01;;;;;;;13.70;5.05;;;;;;;;;;4985206;28;20085;-71
2022/05/26 07:26:28;;;;;;;16.85;5.13;;;;;;;;;;4978108;28;20431;-71
2022/05/26 07:28:53;;;;;;;17.08;5.47;;;;;;;;;;4993515;28;20394;-71
2022/05/26 07:31:19;;;;;;;15.77;4.67;;;;;;;;;;4992393;28;20033;-71
2022/05/26 07:33:44;;;;;;;10.40;3.75;;;;;;;;;;4992083;28;20269;-71
2022/05/26 07:41:16;;;;;;;12.90;4.10;;;;;;;;;;4993798;28;20022;-71
2022/05/26 07:41:40;;;;;;;16.23;5.20;;;;;;;;;;4990147;28;20112;-71
2022/05/26 07:44:05;;;;;;;10.60;3.53;;;;;;;;;;4975524;28;20018;-71
2022/05/26 07:46:31;;;;;;;18.70;4.43;;;;;;;;;;4992174;28;20514;-71
2022/05/26 07:48:56;;;;;;;13.50;4.47;;;;;;;;;;4993360;28;20186;-71
2022/05/26 07:51:21;;;;;;;16.93;4.40;;;;;;;;;;4993679;28;20281;-71
2022/05/26 07:53:46;;;;;;;13.23;4.13;;;;;;;;;;4993684;28;20300;-71
2022/05/26 07:56:12;;;;;;;9.95;3.85;;;;;;;;;;5007676;28;20120;-71
2022/05/26 07:58:37;;;;;;;11.35;3.50;;;;;;;;;;4973953;28;20037;-71
2022/05/26 08:01:03;;;;;;;8.63;3.00;;;;;;;;;;4982629;28;20419;-71
2022/05/26 08:03:28;;;;;;;12.55;3.35;;;;;;;;;;4994451;28;20029;-70
2022/05/26 08:05:54;;;;;;;11.45;3.63;;;;;;;;;;5000971;28;20479;-71
2022/05/26 08:08:19;;;;;;;15.27;4.30;;;;;;;;;;5001624;28;20018;-71
2022/05/26 08:10:44;;;;;;;15.68;4.50;;;;;;;;;;4996328;28;20034;-70
2022/05/26 08:13:10;;;;;;;13.73;4.57;;;;;;;;;;4997863;28;20102;-70
2022/05/26 08:15:35;;;;;;;12.82;3.65;;;;;;;;;;5003430;28;20104;-70
2022/05/26 08:18:00;;;;;;;14.87;3.83;;;;;;;;;;4999715;28;20019;-70
2022/05/26 08:20:26;;;;;;;19.08;4.32;;;;;;;;;;4995452;28;20742;-71
2022/05/26 08:22:51;;;;;;;12.15;3.85;;;;;;;;;;4999711;28;20045;-71
2022/05/26 08:25:16;;;;;;;13.80;4.22;;;;;;;;;;5018297;28;20038;-70
2022/05/26 08:27:41;;;;;;;12.30;3.93;;;;;;;;;;4999167;28;20027;-71
2022/05/26 08:30:07;;;;;;;15.88;4.50;;;;;;;;;;4991922;28;20285;-70
2022/05/26 08:32:33;;;;;;;11.40;4.03;;;;;;;;;;4999434;28;20018;-70
2022/05/26 08:34:58;;;;;;;11.48;4.15;;;;;;;;;;5000275;28;20014;-70
2022/05/26 08:37:23;;;;;;;12.65;3.70;;;;;;;;;;4995545;28;20081;-70
2022/05/26 08:39:49;;;;;;;15.43;4.13;;;;;;;;;;4990270;28;20084;-70
2022/05/26 08:42:25;;;;;;;10.40;2.95;;;;;;;;;;5003663;28;20276;-71
2022/05/26 08:44:53;;;;;;;12.85;3.03;;;;;;;;;;4991059;28;20109;-71
2022/05/26 08:47:20;;;;;;;18.60;3.00;;;;;;;;;;4998997;28;20022;-71
2022/05/26 08:49:56;;;;;;;13.00;2.88;;;;;;;;;;4995544;28;20117;-70
2022/05/26 08:52:30;;;;;;;16.42;3.20;;;;;;;;;;4995548;28;20022;-71
2022/05/26 08:55:02;;;;;;;10.63;3.15;;;;;;;;;;4992805;28;20032;-70
2022/05/26 08:57:33;;;;;;;13.68;3.13;;;;;;;;;;4997926;28;20015;-70
2022/05/26 08:59:59;;;;;;;19.92;3.55;;;;;;;;;;4999278;28;20442;-71
2022/05/26 09:02:35;;;;;;;9.13;2.85;;;;;;;;;;5003352;28;20060;-70
2022/05/26 09:05:05;;;;;;;13.85;4.03;;;;;;;;;;4998122;28;20501;-70
2022/05/26 09:13:06;;;;;;;7.53;2.47;;;;;;;;;;5000220;28;20033;-70
2022/05/26 09:15:33;;;;;;;10.95;2.22;;;;;;;;;;5011105;28;20026;-70
2022/05/26 09:17:59;;;;;;;8.77;2.28;;;;;;;;;;4999568;28;20029;-70
2022/05/26 09:20:26;;;;;;;10.38;3.08;;;;;;;;;;4995893;28;20371;-71
2022/05/26 09:22:52;;;;;;;14.35;3.20;;;;;;;;;;4999627;28;20026;-70
2022/05/26 09:25:34;;;;;;;13.48;3.83;;;;;;;;;;4989760;28;20029;-71
2022/05/26 09:27:59;;;;;;;10.45;3.10;;;;;;;;;;4991058;28;20026;-71
2022/05/26 09:30:24;;;;;;;10.75;3.45;;;;;;;;;;4995076;28;20076;-71
2022/05/26 09:32:50;;;;;;;15.10;3.47;;;;;;;;;;4984160;28;20018;-71
2022/05/26 09:35:18;;;;;;;10.07;3.45;;;;;;;;;;4976232;28;20509;-71
2022/05/26 09:37:48;;;;;;;12.70;3.60;;;;;;;;;;4987548;28;20109;-71
2022/05/26 09:40:24;;;;;;;11.80;3.10;;;;;;;;;;4991908;28;20108;-71
2022/05/26 09:42:51;;;;;;;10.35;2.90;;;;;;;;;;4991229;28;20078;-71
2022/05/26 09:45:17;;;;;;;8.88;2.90;;;;;;;;;;4985143;28;20083;-71
2022/05/26 09:47:53;;;;;;;12.23;3.30;;;;;;;;;;4987419;28;20022;-70
2022/05/26 09:50:30;;;;;;;13.95;3.00;;;;;;;;;;4983959;28;20025;-70
2022/05/26 09:52:55;;;;;;;9.15;2.55;;;;;;;;;;4980934;28;20021;-70
2022/05/26 09:55:26;;;;;;;12.63;3.07;;;;;;;;;;4986605;28;20018;-71
2022/05/26 09:58:13;;;;;;;11.70;2.80;;;;;;;;;;4986566;28;20270;-71
2022/05/26 10:00:39;;;;;;;8.48;2.53;;;;;;;;;;4984112;28;20176;-71
2022/05/26 10:03:08;;;;;;;7.40;3.27;;;;;;;;;;4989450;28;20109;-70
2022/05/26 10:05:56;;;;;;;11.38;2.58;;;;;;;;;;4975015;28;20479;-71
2022/05/26 10:08:25;;;;;;;8.73;3.22;;;;;;;;;;4970598;28;20041;-71
2022/05/26 10:10:59;;;;;;;8.93;2.67;;;;;;;;;;4983728;28;20022;-71
2022/05/26 10:13:40;;;;;;;6.53;2.10;;;;;;;;;;4988230;28;20014;-71
2022/05/26 10:16:05;;;;;;;;;;;;;;;;;;5003690;28;20033;-71
2022/05/26 10:18:50;;;;;;;11.85;3.13;;;;;;;;;;4981655;28;19910;-71
2022/05/26 10:21:39;;;;;;;10.10;2.80;;;;;;;;;;4971059;28;20101;-71
2022/05/26 10:24:36;;;;;;;10.20;2.97;;;;;;;;;;4954655;28;20046;-71
2022/05/26 10:27:18;;;;;;;9.43;2.35;;;;;;;;;;4959319;28;20487;-71
2022/05/26 10:29:47;;;;;;;8.25;2.10;;;;;;;;;;5157921;23;20136;-67
2022/05/26 10:32:21;;;;;;;10.75;3.33;;;;;;;;;;5020834;28;20026;-67
2022/05/26 10:34:46;;;;;;;14.68;3.13;;;;;;;;;;5024126;28;20021;-67
2022/05/26 10:37:24;;;;;;;8.73;3.13;;;;;;;;;;5024938;28;20076;-67
2022/05/26 10:39:55;;;;;;;10.20;2.35;;;;;;;;;;5025832;28;20283;-67
2022/05/26 10:42:24;;;;;;;12.27;2.50;;;;;;;;;;5027648;28;20021;-67
2022/05/26 10:45:02;;;;;;;14.55;2.40;;;;;;;;;;5028540;28;20474;-67
2022/05/26 10:47:42;;;;;;;6.93;1.85;;;;;;;;;;5029689;28;20113;-67
2022/05/26 10:50:10;;;;;;;6.13;1.83;;;;;;;;;;5032409;28;20026;-67
2022/05/26 10:52:40;;;;;;;8.25;3.45;;;;;;;;;;5033903;28;20084;-67
2022/05/26 10:55:05;;;;;;;;;;;;;;;;;;5033652;28;20021;-67
2022/05/26 10:57:31;;;;;;;11.82;2.10;;;;;;;;;;5033387;28;20007;-67
2022/05/26 11:00:00;;;;;;;13.07;2.40;;;;;;;;;;5033915;28;20485;-67
2022/05/26 11:02:33;;;;;;;6.85;2.08;;;;;;;;;;5031362;28;20633;-67
2022/05/26 11:04:58;;;;;;;10.55;1.92;;;;;;;;;;5029738;28;20026;-67
2022/05/26 11:07:35;;;;;;;11.73;2.40;;;;;;;;;;5033541;28;20025;-67
2022/05/26 11:10:06;;;;;;;7.07;2.13;;;;;;;;;;5029334;28;20060;-67
2022/05/26 11:12:31;;;;;;;18.58;2.95;;;;;;;;;;5029689;28;20056;-67
2022/05/26 11:17:52;;;;;;;9.23;2.00;;;;;;;;;;5029815;28;20274;-67
2022/05/26 11:20:26;;;;;;;7.63;2.20;;;;;;;;;;5031265;28;20014;-67
2022/05/26 11:22:52;;;;;;;8.57;1.83;;;;;;;;;;5033240;28;20022;-67
2022/05/26 11:25:24;;;;;;;8.48;1.67;;;;;;;;;;5031688;28;20033;-67
2022/05/26 11:27:52;;;;;;;8.07;2.70;;;;;;;;;;5032779;28;20025;-67
2022/05/26 11:36:09;;;;;;;8.77;2.22;;;;;;;;;;5032280;28;20543;-67
2022/05/26 11:38:39;;;;;;;8.97;2.03;;;;;;;;;;5029851;28;20393;-67
2022/05/26 11:41:06;;;;;;;10.43;2.00;;;;;;;;;;5031445;28;20025;-67
2022/05/26 11:43:43;;;;;;;11.00;1.88;;;;;;;;;;5031122;28;20025;-67
2022/05/26 11:46:12;;;;;;;11.75;2.53;;;;;;;;;;5029635;28;20080;-68
2022/05/26 11:48:38;;;;;;;8.90;2.40;;;;;;;;;;5030062;28;20041;-67
2022/05/26 11:51:23;;;;;;;8.55;1.60;;;;;;;;;;5032098;28;20087;-67
2022/05/26 11:53:49;;;;;;;9.35;1.23;;;;;;;;;;5031663;28;20029;-68
2022/05/26 11:56:23;;;;;;;9.35;1.80;;;;;;;;;;5031125;28;20029;-67
2022/05/26 11:59:08;;;;;;;7.70;2.10;;;;;;;;;;5030570;28;20025;-68
2022/05/26 12:01:35;;;;;;;8.18;1.67;;;;;;;;;;5028452;28;20045;-68
2022/05/26 12:04:00;;;;;;;16.00;1.90;;;;;;;;;;5031973;28;20071;-68
2022/05/26 12:06:38;;;;;;;5.00;1.80;;;;;;;;;;5029429;28;20473;-67
2022/05/26 12:09:03;;;;;;;21.02;2.45;;;;;;;;;;5030085;28;20544;-68
2022/05/26 12:11:50;;;;;;;11.70;2.28;;;;;;;;;;5029932;28;20140;-67
2022/05/26 12:14:39;;;;;;;8.30;2.33;;;;;;;;;;5031055;28;20025;-66
2022/05/26 12:17:23;;;;;;;5.47;2.17;;;;;;;;;;4997148;28;20030;-67
2022/05/26 12:19:48;;;;;;;10.50;2.00;;;;;;;;;;5030665;28;20018;-67
2022/05/26 12:22:21;;;;;;;7.65;2.55;;;;;;;;;;5031166;28;20084;-67
2022/05/26 12:24:48;;;;;;;7.43;2.05;;;;;;;;;;5031192;28;20492;-67
2022/05/26 12:27:13;;;;;;;7.72;2.00;;;;;;;;;;5031086;28;20449;-67
2022/05/26 12:29:41;;;;;;;6.63;1.77;;;;;;;;;;5030968;28;20033;-67
2022/05/26 12:32:28;;;;;;;10.48;1.92;;;;;;;;;;5029415;28;20045;-67
2022/05/26 12:35:05;;;;;;;8.10;1.95;;;;;;;;;;5030110;28;20426;-67
2022/05/26 12:37:36;;;;;;;8.85;1.88;;;;;;;;;;5029571;28;20033;-67
2022/05/26 12:40:20;;;;;;;10.30;2.75;;;;;;;;;;5031855;28;20022;-67
2022/05/26 12:42:51;;;;;;;7.70;2.38;;;;;;;;;;5030355;28;20369;-67
2022/05/26 12:45:19;;;;;;;7.38;2.28;;;;;;;;;;5029153;28;20033;-67
2022/05/26 12:47:53;;;;;;;10.30;2.85;;;;;;;;;;5031019;28;20028;-67
2022/05/26 12:50:24;;;;;;;10.77;2.28;;;;;;;;;;5030091;28;20028;-68
2022/05/26 12:53:00;;;;;;;11.98;2.28;;;;;;;;;;5029657;28;20032;-67
2022/05/26 12:55:45;;;;;;;8.18;2.20;;;;;;;;;;5026978;28;20049;-67
2022/05/26 12:58:16;;;;;;;4.88;1.92;;;;;;;;;;5029027;28;20377;-67
2022/05/26 13:00:45;;;;;;;8.63;2.47;;;;;;;;;;5029213;28;20025;-67
2022/05/26 13:03:13;;;;;;;7.20;1.90;;;;;;;;;;5029332;28;20378;-67
2022/05/26 13:05:39;;;;;;;9.73;2.42;;;;;;;;;;5029133;28;20064;-67
2022/05/26 13:08:10;;;;;;;5.55;2.20;;;;;;;;;;5031049;28;20101;-67
2022/05/26 13:10:35;;;;;;;;;;;;;;;;;;5030394;28;20025;-67
2022/05/26 13:13:01;;;;;;;10.68;2.10;;;;;;;;;;5030885;28;20410;-67
2022/05/26 13:15:27;;;;;;;6.95;2.15;;;;;;;;;;5030648;28;20017;-67
2022/05/26 13:17:53;;;;;;;5.40;2.08;;;;;;;;;;5028336;28;20061;-67
2022/05/26 13:20:29;;;;;;;10.13;2.47;;;;;;;;;;5029100;28;20064;-67
2022/05/26 13:22:54;;;;;;;9.18;1.92;;;;;;;;;;5030346;28;20018;-67
2022/05/26 13:25:24;;;;;;;11.53;2.00;;;;;;;;;;5029089;28;20025;-67
2022/05/26 13:27:52;;;;;;;8.63;2.33;;;;;;;;;;5029881;28;20652;-67
2022/05/26 13:33:07;;;;;;;4.63;1.90;;;;;;;;;;5028552;28;20025;-67
2022/05/26 13:35:37;;;;;;;7.43;1.90;;;;;;;;;;5029420;28;20028;-67
2022/05/26 13:38:03;;;;;;;5.47;1.70;;;;;;;;;;5030337;28;20029;-67
2022/05/26 13:40:28;;;;;;;5.47;1.60;;;;;;;;;;5028859;28;20025;-67
2022/05/26 13:42:54;;;;;;;8.07;2.00;;;;;;;;;;5028815;28;20733;-67
2022/05/26 13:45:19;;;;;;;7.38;1.60;;;;;;;;;;5028130;28;21160;-67
2022/05/26 13:47:44;;;;;;;6.73;1.70;;;;;;;;;;5028323;28;20021;-67
2022/05/26 13:50:10;;;;;;;3.60;1.70;;;;;;;;;;5028224;28;20283;-67
2022/05/26 13:52:36;;;;;;;10.07;2.80;;;;;;;;;;5028574;28;20389;-67
2022/05/26 13:55:04;;;;;;;11.50;3.53;;;;;;;;;;5029287;28;20022;-67
2022/05/26 13:57:33;;;;;;;11.00;3.33;;;;;;;;;;5029093;28;20033;-67
2022/05/26 14:00:00;;;;;;;9.48;3.38;;;;;;;;;;5030075;28;20400;-67
2022/05/26 14:02:27;;;;;;;12.43;3.10;;;;;;;;;;5028446;28;20021;-67
2022/05/26 14:05:08;;;;;;;11.02;3.40;;;;;;;;;;5027842;28;20381;-67
2022/05/26 14:07:36;;;;;;;10.13;2.78;;;;;;;;;;5028925;28;20036;-67
2022/05/26 14:10:17;;;;;;;8.73;3.03;;;;;;;;;;5028613;28;20032;-67
2022/05/26 14:12:43;;;;;;;9.13;3.25;;;;;;;;;;5028960;28;20040;-67
2022/05/26 14:15:08;;;;;;;7.47;1.92;;;;;;;;;;5029211;28;20465;-68
2022/05/26 14:17:37;;;;;;;10.77;2.88;;;;;;;;;;5028390;28;20032;-69
2022/05/26 14:20:20;;;;;;;5.85;2.13;;;;;;;;;;5027873;28;20288;-68
2022/05/26 14:22:46;;;;;;;12.20;2.65;;;;;;;;;;5026277;28;20030;-68
2022/05/26 14:25:16;;;;;;;7.13;1.83;;;;;;;;;;5029119;28;20020;-68
2022/05/26 14:27:41;;;;;;;;;;;;;;;;;;5030092;28;20026;-68
2022/05/26 14:30:33;;;;;;;13.35;2.50;;;;;;;;;;5028156;28;20024;-68
2022/05/26 14:33:08;;;;;;;7.28;2.38;;;;;;;;;;5025018;28;20397;-68
2022/05/26 14:35:34;;;;;;;7.47;1.92;;;;;;;;;;5027440;28;20026;-68
2022/05/26 14:37:59;;;;;;;7.90;1.90;;;;;;;;;;5027741;28;20017;-67
2022/05/26 14:40:24;;;;;;;4.83;1.60;;;;;;;;;;5024835;28;20025;-68
2022/05/26 14:42:49;;;;;;;7.60;1.90;;;;;;;;;;5028590;28;20467;-68
2022/05/26 14:45:17;;;;;;;15.17;2.90;;;;;;;;;;5029755;28;20021;-68
2022/05/26 14:47:42;;;;;;;6.43;1.77;;;;;;;;;;5027359;28;20272;-68
2022/05/26 14:50:08;;;;;;;8.25;2.15;;;;;;;;;;5028221;28;20496;-68
2022/05/26 14:52:35;;;;;;;8.82;2.35;;;;;;;;;;5027116;28;20432;-68
2022/05/26 14:57:44;;;;;;;10.90;2.05;;;;;;;;;;5028770;28;20064;-68
2022/05/26 15:00:11;;;;;;;8.15;1.73;;;;;;;;;;5028463;28;20045;-68
2022/05/26 15:02:36;;;;;;;8.38;2.28;;;;;;;;;;5028526;28;20036;-68
2022/05/26 15:05:02;;;;;;;9.52;2.67;;;;;;;;;;5026264;28;20390;-68
2022/05/26 15:07:27;;;;;;;7.13;2.20;;;;;;;;;;5028372;28;20030;-67
2022/05/26 15:09:53;;;;;;;9.43;2.90;;;;;;;;;;5029076;28;20132;-67
2022/05/26 15:12:18;;;;;;;10.85;1.95;;;;;;;;;;5029053;28;20295;-67
2022/05/26 15:14:43;;;;;;;9.95;2.10;;;;;;;;;;5027361;28;20064;-67
2022/05/26 15:17:10;;;;;;;6.82;2.00;;;;;;;;;;5028630;28;20021;-68
2022/05/26 15:19:37;;;;;;;5.32;1.83;;;;;;;;;;5027886;28;20028;-68
2022/05/26 15:22:02;;;;;;;5.78;1.70;;;;;;;;;;5028198;28;20036;-67
2022/05/26 15:24:28;;;;;;;10.18;2.17;;;;;;;;;;5029645;28;20013;-68
2022/05/26 15:26:53;;;;;;;13.30;2.40;;;;;;;;;;5026997;28;20454;-67